METAR Data
IDs: Format: Raw Decoded Include TAF

Data at: 1219 UTC 16 Feb 2019

PARC 161156Z AUTO 32006KT 10SM CLR M34/M37 A3010 RMK AO2 SLP306 T13391367 11339 21361 58010 FZRANO
PARC 161056Z AUTO 33005KT 10SM CLR M36/ A3011 RMK AO2 SLP316 T1356 FZRANO
PARC 160956Z AUTO 32005KT 9SM CLR M35/ A3013 RMK AO2 SLP321 T1350 FZRANO
PARC 160856Z AUTO 33004KT 9SM CLR M35/ A3013 RMK AO2 SLP325 T1350 412561367 53003 FZRANO
PARC 160756Z AUTO 01004KT 8SM CLR M36/ A3013 RMK AO2 SLP328 T1356 FZRANO
PARC 160656Z AUTO 34004KT 10SM CLR M34/ A3012 RMK AO2 SLP327 T1344 FZRANO
PARC 160556Z AUTO 34004KT 10SM CLR M34/M37 A3012 RMK AO2 SLP330 T13391367 11261 21339 50000 FZRANO
PARC 160456Z AUTO 36003KT 10SM CLR M33/M36 A3012 RMK AO2 SLP325 T13281356 FZRANO
PARC 160356Z AUTO 32005KT 8SM CLR M32/M34 A3012 RMK AO2 SLP323 T13171344 FZRANO
PARC 160256Z AUTO 29004KT 10SM CLR M31/M33 A3012 RMK AO2 SLP322 T13061333 56001 FZRANO
PARC 160156Z AUTO 33003KT 10SM CLR M29/M32 A3012 RMK AO2 SLP319 T12941322 FZRANO
PARC 160056Z AUTO 35005KT 10SM CLR M28/M32 A3011 RMK AO2 SLP313 T12831317 FZRANO
PARC 152356Z AUTO 30004KT 10SM CLR M26/M30 A3012 RMK AO2 SLP315 T12611300 11256 21361 50000 FZRANO
PARC 152156Z AUTO 33003KT 10SM CLR M28/M32 A3012 RMK AO2 SLP315 T12831322 FZRANO
PARC 152056Z AUTO 00000KT 9SM CLR M30/M33 A3012 RMK AO2 SLP317 T13001333 51007 FZRANO
PARC 151956Z AUTO 34004KT 7SM CLR M32/M36 A3012 RMK AO2 SLP314 T13221356 FZRANO